Time,TemperatureF,DewpointF,PressureIn,WindDirection,WindDirectionDegrees,WindSpeedMPH,WindSpeedGustMPH,Humidity,HourlyPrecipIn,Conditions,Clouds,dailyrainin,SoftwareType,DateUTC
2013-07-07 00:06:00,81.3,75.0,30.08,South,178,2.0,-999.0,81,-99.99,,,0.13,weatherlink.com 1.10,2013-07-07 04:06:00,
2013-07-07 00:21:00,81.1,75.0,30.08,ESE,117,1.0,-999.0,81,-99.99,,,0.13,weatherlink.com 1.10,2013-07-07 04:21:00,
2013-07-07 00:36:00,80.9,75.0,30.08,SSE,161,0.0,-999.0,82,-99.99,,,0.13,weatherlink.com 1.10,2013-07-07 04:36:00,
2013-07-07 00:51:00,80.7,75.0,30.08,ESE,110,1.0,-999.0,83,-99.99,,,0.13,weatherlink.com 1.10,2013-07-07 04:51:00,
2013-07-07 01:06:00,80.6,75.0,30.07,East,93,1.0,-999.0,84,-99.99,,,0.13,weatherlink.com 1.10,2013-07-07 05:06:00,
2013-07-07 01:21:00,80.5,76.0,30.07,ESE,118,0.0,-999.0,85,-99.99,,,0.13,weatherlink.com 1.10,2013-07-07 05:21:00,
2013-07-07 01:36:00,80.4,76.0,30.06,ESE,121,4.0,-999.0,85,-99.99,,,0.00,weatherlink.com 1.10,2013-07-07 05:36:00,
2013-07-07 01:51:00,80.4,76.0,30.06,East,100,5.0,-999.0,85,-99.99,,,0.00,weatherlink.com 1.10,2013-07-07 05:51:00,
2013-07-07 02:06:00,80.2,75.0,30.06,SSE,163,0.0,-999.0,85,-99.99,,,0.00,weatherlink.com 1.10,2013-07-07 06:06:00,
2013-07-07 02:21:00,80.2,75.0,30.06,ESE,120,0.0,-999.0,85,-99.99,,,0.00,weatherlink.com 1.10,2013-07-07 06:21:00,
2013-07-07 02:36:00,80.1,75.0,30.05,ESE,114,1.0,-999.0,85,-99.99,,,0.00,weatherlink.com 1.10,2013-07-07 06:36:00,
2013-07-07 02:51:00,80.0,75.0,30.05,SE,126,0.0,-999.0,85,-99.99,,,0.00,weatherlink.com 1.10,2013-07-07 06:51:00,
2013-07-07 03:06:00,79.9,75.0,30.05,ESE,115,2.0,-999.0,85,-99.99,,,0.00,weatherlink.com 1.10,2013-07-07 07:06:00,
2013-07-07 03:21:00,80.0,75.0,30.05,ESE,109,1.0,-999.0,85,-99.99,,,0.00,weatherlink.com 1.10,2013-07-07 07:21:00,
2013-07-07 03:36:00,79.9,75.0,30.05,East,90,0.0,-999.0,85,-99.99,,,0.00,weatherlink.com 1.10,2013-07-07 07:36:00,
2013-07-07 03:51:00,79.8,75.0,30.04,ESE,109,0.0,-999.0,85,-99.99,,,0.00,weatherlink.com 1.10,2013-07-07 07:51:00,
2013-07-07 04:06:00,79.8,75.0,30.04,SE,130,0.0,-999.0,85,-99.99,,,0.00,weatherlink.com 1.10,2013-07-07 08:06:00,
2013-07-07 04:21:00,79.6,75.0,30.04,SE,146,0.0,-999.0,85,-99.99,,,0.00,weatherlink.com 1.10,2013-07-07 08:21:00,
2013-07-07 04:36:00,79.3,75.0,30.04,ESE,121,0.0,-999.0,85,-99.99,,,0.00,weatherlink.com 1.10,2013-07-07 08:36:00,
2013-07-07 04:51:00,79.0,75.0,30.04,East,89,0.0,-999.0,86,-99.99,,,0.00,weatherlink.com 1.10,2013-07-07 08:51:00,
2013-07-07 05:06:00,78.8,74.0,30.04,ESE,121,0.0,-999.0,86,-99.99,,,0.00,weatherlink.com 1.10,2013-07-07 09:06:00,
2013-07-07 05:21:00,78.6,75.0,30.03,ESE,106,0.0,-999.0,87,-99.99,,,0.00,weatherlink.com 1.10,2013-07-07 09:21:00,
2013-07-07 05:36:00,78.7,75.0,30.03,SE,124,1.0,-999.0,87,-99.99,,,0.00,weatherlink.com 1.10,2013-07-07 09:36:00,
2013-07-07 05:51:00,78.7,74.0,30.03,East,100,0.0,-999.0,86,-99.99,,,0.00,weatherlink.com 1.10,2013-07-07 09:51:00,
2013-07-07 06:06:00,78.8,74.0,30.03,ESE,109,0.0,-999.0,85,-99.99,,,0.00,weatherlink.com 1.10,2013-07-07 10:06:00,
2013-07-07 06:21:00,78.6,74.0,30.04,ESE,110,0.0,-999.0,86,-99.99,,,0.00,weatherlink.com 1.10,2013-07-07 10:21:00,
2013-07-07 06:36:00,78.8,75.0,30.04,SE,126,0.0,-999.0,87,-99.99,,,0.00,weatherlink.com 1.10,2013-07-07 10:36:00,
2013-07-07 06:51:00,78.8,75.0,30.04,East,84,0.0,-999.0,87,-99.99,,,0.00,weatherlink.com 1.10,2013-07-07 10:51:00,
2013-07-07 07:06:00,79.2,75.0,30.05,ENE,75,0.0,-999.0,86,-99.99,,,0.00,weatherlink.com 1.10,2013-07-07 11:06:00,
2013-07-07 07:21:00,79.7,75.0,30.05,ENE,72,0.0,-999.0,85,-99.99,,,0.00,weatherlink.com 1.10,2013-07-07 11:21:00,
2013-07-07 07:36:00,80.0,76.0,30.06,East,95,1.0,-999.0,86,-99.99,,,0.00,weatherlink.com 1.10,2013-07-07 11:36:00,
2013-07-07 07:51:00,81.9,76.0,30.06,South,176,6.0,-999.0,82,-99.99,,,0.00,weatherlink.com 1.10,2013-07-07 11:51:00,
2013-07-07 08:06:00,82.9,75.0,30.06,ENE,65,7.0,-999.0,78,-99.99,,,0.00,weatherlink.com 1.10,2013-07-07 12:06:00,
2013-07-07 08:21:00,82.1,75.0,30.07,ESE,121,4.0,-999.0,79,-99.99,,,0.00,weatherlink.com 1.10,2013-07-07 12:21:00,
2013-07-07 08:36:00,82.0,76.0,30.07,SE,141,1.0,-999.0,81,-99.99,,,0.00,weatherlink.com 1.10,2013-07-07 12:36:00,
2013-07-07 08:51:00,82.5,76.0,30.07,East,89,3.0,-999.0,80,-99.99,,,0.00,weatherlink.com 1.10,2013-07-07 12:51:00,
2013-07-07 09:06:00,84.0,77.0,30.07,East,94,4.0,-999.0,79,-99.99,,,0.00,weatherlink.com 1.10,2013-07-07 13:06:00,
2013-07-07 09:21:00,84.7,76.0,30.08,East,80,3.0,-999.0,76,-99.99,,,0.00,weatherlink.com 1.10,2013-07-07 13:21:00,
2013-07-07 09:37:00,85.2,76.0,30.08,ENE,78,4.0,-999.0,74,-99.99,,,0.00,weatherlink.com 1.10,2013-07-07 13:37:00,
2013-07-07 09:52:00,85.2,76.0,30.08,East,88,2.0,-999.0,73,-99.99,,,0.00,weatherlink.com 1.10,2013-07-07 13:52:00,
2013-07-07 10:07:00,85.4,75.0,30.08,East,91,2.0,-999.0,71,-99.99,,,0.00,weatherlink.com 1.10,2013-07-07 14:07:00,
2013-07-07 10:22:00,85.6,75.0,30.08,NE,53,5.0,-999.0,71,-99.99,,,0.00,weatherlink.com 1.10,2013-07-07 14:22:00,
2013-07-07 10:37:00,85.8,76.0,30.08,ENE,69,3.0,-999.0,72,-99.99,,,0.00,weatherlink.com 1.10,2013-07-07 14:37:00,
2013-07-07 10:52:00,85.9,76.0,30.09,ENE,76,4.0,-999.0,72,-99.99,,,0.00,weatherlink.com 1.10,2013-07-07 14:52:00,
2013-07-07 11:07:00,86.5,76.0,30.09,SSE,165,11.0,-999.0,71,-99.99,,,0.00,weatherlink.com 1.10,2013-07-07 15:07:00,
2013-07-07 11:22:00,86.8,76.0,30.09,SE,136,6.0,-999.0,71,-99.99,,,0.00,weatherlink.com 1.10,2013-07-07 15:22:00,
2013-07-07 11:37:00,86.9,75.0,30.09,East,94,8.0,-999.0,68,-99.99,,,0.00,weatherlink.com 1.10,2013-07-07 15:37:00,
2013-07-07 11:52:00,86.9,75.0,30.08,East,90,4.0,-999.0,67,-99.99,,,0.00,weatherlink.com 1.10,2013-07-07 15:52:00,
2013-07-07 12:07:00,87.0,74.0,30.08,ENE,70,4.0,-999.0,66,-99.99,,,0.00,weatherlink.com 1.10,2013-07-07 16:07:00,
2013-07-07 12:22:00,87.0,75.0,30.08,ENE,67,8.0,-999.0,68,-99.99,,,0.00,weatherlink.com 1.10,2013-07-07 16:22:00,
2013-07-07 12:37:00,87.4,76.0,30.08,East,84,5.0,-999.0,68,-99.99,,,0.00,weatherlink.com 1.10,2013-07-07 16:37:00,
2013-07-07 12:52:00,87.5,76.0,30.08,SSE,159,5.0,-999.0,69,-99.99,,,0.00,weatherlink.com 1.10,2013-07-07 16:52:00,
2013-07-07 13:07:00,87.9,75.0,30.08,ENE,75,3.0,-999.0,66,-99.99,,,0.00,weatherlink.com 1.10,2013-07-07 17:07:00,
2013-07-07 13:22:00,87.7,76.0,30.07,SE,126,9.0,-999.0,68,-99.99,,,0.00,weatherlink.com 1.10,2013-07-07 17:22:00,
2013-07-07 13:37:00,86.7,76.0,30.07,East,85,5.0,-999.0,70,-99.99,,,0.00,weatherlink.com 1.10,2013-07-07 17:37:00,
2013-07-07 13:52:00,87.7,76.0,30.07,SE,137,5.0,-999.0,69,-99.99,,,0.00,weatherlink.com 1.10,2013-07-07 17:52:00,
2013-07-07 14:07:00,82.1,75.0,30.07,ESE,113,4.0,-999.0,80,-99.99,,,0.03,weatherlink.com 1.10,2013-07-07 18:07:00,
2013-07-07 14:22:00,84.1,76.0,30.06,East,80,10.0,-999.0,77,-99.99,,,0.03,weatherlink.com 1.10,2013-07-07 18:22:00,
2013-07-07 14:37:00,85.6,76.0,30.06,ESE,121,4.0,-999.0,73,-99.99,,,0.03,weatherlink.com 1.10,2013-07-07 18:37:00,
2013-07-07 14:52:00,86.9,76.0,30.05,East,86,11.0,-999.0,71,-99.99,,,0.03,weatherlink.com 1.10,2013-07-07 18:52:00,
2013-07-07 15:07:00,86.6,76.0,30.05,ENE,74,5.0,-999.0,70,-99.99,,,0.03,weatherlink.com 1.10,2013-07-07 19:07:00,
2013-07-07 15:22:00,87.3,77.0,30.05,SE,146,2.0,-999.0,71,-99.99,,,0.03,weatherlink.com 1.10,2013-07-07 19:22:00,
2013-07-07 15:37:00,87.4,77.0,30.04,SSE,157,1.0,-999.0,70,-99.99,,,0.03,weatherlink.com 1.10,2013-07-07 19:37:00,
2013-07-07 15:52:00,87.0,76.0,30.04,ENE,58,3.0,-999.0,70,-99.99,,,0.03,weatherlink.com 1.10,2013-07-07 19:52:00,
2013-07-07 16:07:00,87.3,77.0,30.04,East,98,8.0,-999.0,71,-99.99,,,0.03,weatherlink.com 1.10,2013-07-07 20:07:00,
2013-07-07 16:22:00,87.8,78.0,30.04,SSE,162,4.0,-999.0,72,-99.99,,,0.03,weatherlink.com 1.10,2013-07-07 20:22:00,
2013-07-07 16:37:00,87.5,77.0,30.03,ESE,115,8.0,-999.0,70,-99.99,,,0.03,weatherlink.com 1.10,2013-07-07 20:37:00,
2013-07-07 16:52:00,87.5,77.0,30.02,East,80,6.0,-999.0,70,-99.99,,,0.03,weatherlink.com 1.10,2013-07-07 20:52:00,
2013-07-07 17:07:00,87.0,76.0,30.02,SSE,163,4.0,-999.0,70,-99.99,,,0.03,weatherlink.com 1.10,2013-07-07 21:07:00,
2013-07-07 17:22:00,86.8,77.0,30.02,ESE,108,5.0,-999.0,72,-99.99,,,0.03,weatherlink.com 1.10,2013-07-07 21:22:00,
2013-07-07 17:37:00,86.7,77.0,30.02,East,93,6.0,-999.0,73,-99.99,,,0.03,weatherlink.com 1.10,2013-07-07 21:37:00,
2013-07-07 17:52:00,85.7,77.0,30.02,SSE,148,6.0,-999.0,75,-99.99,,,0.03,weatherlink.com 1.10,2013-07-07 21:52:00,
2013-07-07 18:07:00,86.0,77.0,30.02,ESE,113,6.0,-999.0,74,-99.99,,,0.03,weatherlink.com 1.10,2013-07-07 22:07:00,
2013-07-07 18:22:00,85.3,77.0,30.02,ESE,105,5.0,-999.0,77,-99.99,,,0.03,weatherlink.com 1.10,2013-07-07 22:22:00,
2013-07-07 18:37:00,84.4,77.0,30.02,ESE,109,4.0,-999.0,78,-99.99,,,0.03,weatherlink.com 1.10,2013-07-07 22:37:00,
2013-07-07 18:52:00,84.7,75.0,30.02,SE,128,4.0,-999.0,72,-99.99,,,0.03,weatherlink.com 1.10,2013-07-07 22:52:00,
2013-07-07 19:07:00,84.6,75.0,30.02,ESE,123,7.0,-999.0,73,-99.99,,,0.03,weatherlink.com 1.10,2013-07-07 23:07:00,
2013-07-07 19:22:00,85.0,75.0,30.03,ESE,103,1.0,-999.0,72,-99.99,,,0.03,weatherlink.com 1.10,2013-07-07 23:22:00,
2013-07-07 19:37:00,84.8,76.0,30.03,East,101,2.0,-999.0,74,-99.99,,,0.03,weatherlink.com 1.10,2013-07-07 23:37:00,
2013-07-07 19:52:00,83.7,75.0,30.03,East,80,6.0,-999.0,76,-99.99,,,0.03,weatherlink.com 1.10,2013-07-07 23:52:00,
2013-07-07 20:07:00,83.1,75.0,30.03,SE,136,2.0,-999.0,76,-99.99,,,0.03,weatherlink.com 1.10,2013-07-08 00:07:00,
2013-07-07 20:22:00,82.7,75.0,30.04,East,98,1.0,-999.0,77,-99.99,,,0.03,weatherlink.com 1.10,2013-07-08 00:22:00,
2013-07-07 20:37:00,82.3,76.0,30.04,East,101,4.0,-999.0,80,-99.99,,,0.03,weatherlink.com 1.10,2013-07-08 00:37:00,
2013-07-07 20:52:00,82.1,75.0,30.05,ESE,107,7.0,-999.0,79,-99.99,,,0.03,weatherlink.com 1.10,2013-07-08 00:52:00,
2013-07-07 21:07:00,82.0,75.0,30.05,ESE,115,4.0,-999.0,80,-99.99,,,0.03,weatherlink.com 1.10,2013-07-08 01:07:00,
2013-07-07 21:22:00,81.8,75.0,30.05,SE,140,2.0,-999.0,79,-99.99,,,0.03,weatherlink.com 1.10,2013-07-08 01:22:00,
2013-07-07 21:37:00,81.7,75.0,30.05,SE,146,0.0,-999.0,80,-99.99,,,0.03,weatherlink.com 1.10,2013-07-08 01:37:00,
2013-07-07 21:52:00,81.6,75.0,30.06,ESE,123,0.0,-999.0,81,-99.99,,,0.03,weatherlink.com 1.10,2013-07-08 01:52:00,
2013-07-07 22:07:00,81.4,75.0,30.06,SE,140,1.0,-999.0,80,-99.99,,,0.03,weatherlink.com 1.10,2013-07-08 02:07:00,
2013-07-07 22:22:00,81.3,75.0,30.07,South,180,1.0,-999.0,80,-99.99,,,0.03,weatherlink.com 1.10,2013-07-08 02:22:00,
2013-07-07 22:37:00,81.3,74.0,30.07,SSE,155,0.0,-999.0,79,-99.99,,,0.03,weatherlink.com 1.10,2013-07-08 02:37:00,
2013-07-07 22:52:00,81.3,75.0,30.08,ESE,108,2.0,-999.0,80,-99.99,,,0.03,weatherlink.com 1.10,2013-07-08 02:52:00,
2013-07-07 23:07:00,81.3,75.0,30.08,ESE,117,1.0,-999.0,80,-99.99,,,0.03,weatherlink.com 1.10,2013-07-08 03:07:00,
2013-07-07 23:22:00,81.1,75.0,30.08,ESE,103,2.0,-999.0,81,-99.99,,,0.03,weatherlink.com 1.10,2013-07-08 03:22:00,
2013-07-07 23:37:00,81.1,75.0,30.09,ESE,115,0.0,-999.0,81,-99.99,,,0.03,weatherlink.com 1.10,2013-07-08 03:37:00,
2013-07-07 23:52:00,81.0,75.0,30.09,SSE,161,0.0,-999.0,82,-99.99,,,0.03,weatherlink.com 1.10,2013-07-08 03:52:00,